Terminal Aerodrome Forecast
Issued by NWS Goodland, KS

Home | Current Version | Previous Version | Text Only | Print | Product List | Glossary On
Versions: 1 2 3 4 5 6 7 8 9 10 11 12 13 14 15 16
000
FTUS43 KGLD 251100
TAFGLD
TAF
KGLD 251121Z 2512/2612 28007KT P6SM BKN150
     FM251400 35016G24KT P6SM SCT150
     FM252000 02008KT P6SM BKN150
     FM260000 VRB06KT P6SM FEW070 BKN150=

USA.gov is the U.S. government's official web portal to all federal, state and local government web resources and services.